Time;durP1;ratioP1;P1;durP2;ratioP2;P2;SDS_P1;SDS_P2;PMS_P1;PMS_P2;Temp;Humidity;BMP_temperature;BMP_pressure;BME280_temperature;BME280_humidity;BME280_pressure;Samples;Min_cycle;Max_cycle;Signal;HPM_P1;HPM_P2
2023/02/10 00:00:22;;;;;;;;;;;;;;;-4.22;76.19;102473.19;5039082;28;19974;-86
2023/02/10 00:02:47;;;;;;;;;;;;;;;-4.19;75.75;102475.78;5033532;28;19916;-86
2023/02/10 00:05:13;;;;;;;;;;;;;;;-4.19;75.98;102475.78;5024379;28;19928;-86
2023/02/10 00:07:38;;;;;;;;;;;;;;;-4.21;77.17;102471.47;5021969;28;19929;-86
2023/02/10 00:10:03;;;;;;;;;;;;;;;-4.24;76.95;102471.47;5048968;28;20019;-86
2023/02/10 00:12:28;;;;;;;;;;;;;;;-4.29;78.26;102481.84;5032326;28;19955;-86
2023/02/10 00:14:53;;;;;;;;;;;;;;;-4.32;78.50;102485.28;5028766;28;19921;-86
2023/02/10 00:17:19;;;;;;;;;;;;;;;-4.33;79.08;102487.91;5027943;28;19944;-86
2023/02/10 00:19:44;;;;;;;;;;;;;;;-4.33;79.10;102487.91;5031027;28;19921;-86
2023/02/10 00:22:09;;;;;;;;;;;;;;;-4.31;77.32;102488.75;5030416;28;20055;-86
2023/02/10 00:24:34;;;;;;;;;;;;;;;-4.31;76.97;102491.34;5024496;28;19952;-86
2023/02/10 00:26:59;;;;;;;;;;;;;;;-4.30;76.69;102488.72;5034896;28;19925;-86
2023/02/10 00:29:25;;;;;;;;;;;;;;;-4.25;76.94;102496.44;5040721;28;19925;-86
2023/02/10 00:31:50;;;;;;;;;;;;;;;-4.27;77.13;102491.31;5024994;28;19990;-86
2023/02/10 00:34:16;;;;;;;;;;;;;;;-4.33;77.22;102500.81;5023774;28;19942;-86
2023/02/10 00:36:42;;;;;;;;;;;;;;;-4.38;77.94;102500.84;5031887;28;20354;-86
2023/02/10 00:39:11;;;;;;;;;;;;;;;-4.44;78.34;102498.28;5027106;28;19963;-86
2023/02/10 00:41:37;;;;;;;;;;;;;;;-4.46;77.50;102493.97;5022997;28;19972;-85
2023/02/10 00:44:02;;;;;;;;;;;;;;;-4.46;77.01;102496.56;5022665;28;19921;-86
2023/02/10 00:46:27;;;;;;;;;;;;;;;-4.47;77.27;102500.88;5033978;28;20302;-88
2023/02/10 00:48:53;;;;;;;;;;;;;;;-4.48;77.95;102506.91;5026838;28;19947;-88
2023/02/10 00:51:18;;;;;;;;;;;;;;;-4.49;77.59;102508.63;5046907;28;19921;-87
2023/02/10 00:53:43;;;;;;;;;;;;;;;-4.49;77.24;102503.44;5021243;28;19921;-88
2023/02/10 00:56:09;;;;;;;;;;;;;;;-4.46;78.10;102506.88;5050033;28;19996;-87
2023/02/10 00:58:34;;;;;;;;;;;;;;;-4.47;78.09;102516.38;5052631;28;19917;-87
2023/02/10 01:00:59;;;;;;;;;;;;;;;-4.52;78.11;102508.63;5025923;28;19929;-87
2023/02/10 01:03:25;;;;;;;;;;;;;;;-4.56;78.66;102513.81;5031253;28;19954;-88
2023/02/10 01:05:50;;;;;;;;;;;;;;;-4.59;79.83;102525.03;5033126;28;19932;-88
2023/02/10 01:08:16;;;;;;;;;;;;;;;-4.60;82.98;102536.22;5022551;28;20447;-88
2023/02/10 01:10:41;;;;;;;;;;;;;;;-4.61;81.89;102537.06;5026741;28;19916;-88
2023/02/10 01:13:07;;;;;;;;;;;;;;;-4.62;81.88;102539.66;5029986;28;20008;-88
2023/02/10 01:15:32;;;;;;;;;;;;;;;-4.63;82.08;102550.84;5032988;28;19920;-88
2023/02/10 01:17:58;;;;;;;;;;;;;;;-4.65;82.36;102550.00;5027791;28;20434;-89
2023/02/10 01:20:23;;;;;;;;;;;;;;;-4.68;82.61;102552.59;5025803;28;19920;-88
2023/02/10 01:22:49;;;;;;;;;;;;;;;-4.71;81.92;102548.28;5018000;28;20037;-89
2023/02/10 01:25:14;;;;;;;;;;;;;;;-4.71;81.07;102548.28;5029148;28;19931;-88
2023/02/10 01:27:39;;;;;;;;;;;;;;;-4.72;83.19;102552.59;5024466;28;20625;-87
2023/02/10 01:30:05;;;;;;;;;;;;;;;-4.70;81.17;102550.00;5047317;28;19932;-88
2023/02/10 01:32:30;;;;;;;;;;;;;;;-4.66;79.86;102550.88;5025494;28;19927;-87
2023/02/10 01:34:55;;;;;;;;;;;;;;;-4.64;79.69;102544.84;5033018;28;20381;-87
2023/02/10 01:37:21;;;;;;;;;;;;;;;-4.64;79.82;102550.00;5031378;28;20491;-87
2023/02/10 01:39:46;;;;;;;;;;;;;;;-4.65;79.91;102556.00;5032750;28;19963;-87
2023/02/10 01:42:13;;;;;;;;;;;;;;;-4.63;79.63;102550.84;5017749;28;20008;-87
2023/02/10 01:44:38;;;;;;;;;;;;;;;-4.61;79.24;102546.53;5043986;28;19917;-86
2023/02/10 01:47:03;;;;;;;;;;;;;;;-4.63;78.93;102549.13;5042690;28;19932;-87
2023/02/10 01:49:30;;;;;;;;;;;;;;;-4.65;79.25;102543.09;5041190;28;19916;-87
2023/02/10 01:51:59;;;;;;;;;;;;;;;-4.68;79.89;102547.44;5037158;28;19923;-87
2023/02/10 01:54:30;;;;;;;;;;;;;;;-4.72;80.29;102544.88;5034704;28;20009;-88
2023/02/10 01:56:55;;;;;;;;;;;;;;;-4.73;80.38;102542.28;5036214;28;19917;-87
2023/02/10 01:59:22;;;;;;;;;;;;;;;-4.75;80.28;102549.16;5027536;28;19917;-87
2023/02/10 02:01:48;;;;;;;;;;;;;;;-4.78;80.41;102541.44;5035572;28;19970;-86
2023/02/10 02:04:14;;;;;;;;;;;;;;;-4.80;79.76;102544.00;5028325;28;19956;-87
2023/02/10 02:06:40;;;;;;;;;;;;;;;-4.80;79.83;102543.16;5023421;28;19904;-86
2023/02/10 02:09:06;;;;;;;;;;;;;;;-4.81;79.62;102538.88;5020247;28;19967;-87
2023/02/10 02:11:34;;;;;;;;;;;;;;;-4.83;79.43;102554.34;5015740;28;19936;-86
2023/02/10 02:14:05;;;;;;;;;;;;;;;-4.87;80.38;102551.78;5045301;28;19923;-87
2023/02/10 02:16:38;;;;;;;;;;;;;;;-4.89;80.04;102554.34;5033441;28;19917;-88
2023/02/10 02:19:22;;;;;;;;;;;;;;;-4.90;79.56;102547.47;5044347;28;20095;-87
2023/02/10 02:21:50;;;;;;;;;;;;;;;-4.89;79.29;102543.16;5018993;28;19975;-86
2023/02/10 02:24:34;;;;;;;;;;;;;;;-4.90;79.33;102555.22;5024985;28;19916;-87
2023/02/10 02:27:08;;;;;;;;;;;;;;;-4.91;79.72;102558.66;5027241;28;20044;-87
2023/02/10 02:29:37;;;;;;;;;;;;;;;-4.91;81.04;102559.53;5034763;28;19921;-87
2023/02/10 02:32:02;;;;;;;;;;;;;;;-4.89;82.93;102556.94;5030725;28;20003;-88
2023/02/10 02:34:36;;;;;;;;;;;;;;;-4.91;82.82;102556.06;5050372;28;19968;-86
2023/02/10 02:37:06;;;;;;;;;;;;;;;-4.89;83.55;102563.81;5015434;28;19917;-86
2023/02/10 02:39:31;;;;;;;;;;;;;;;-4.87;83.71;102568.09;5042250;28;20393;-87
2023/02/10 02:42:18;;;;;;;;;;;;;;;-4.85;84.09;102570.69;5025535;28;19948;-87
2023/02/10 02:44:44;;;;;;;;;;;;;;;-4.86;82.63;102569.84;5028692;28;20005;-87
2023/02/10 02:47:13;;;;;;;;;;;;;;;-4.87;82.59;102577.56;5035359;28;20440;-86
2023/02/10 02:49:45;;;;;;;;;;;;;;;-4.86;82.90;102577.59;5032987;28;19959;-87
2023/02/10 02:52:23;;;;;;;;;;;;;;;-4.86;82.50;102580.16;5047100;28;19927;-87
2023/02/10 02:54:48;;;;;;;;;;;;;;;-4.85;82.59;102584.44;5052651;28;19917;-88
2023/02/10 02:57:37;;;;;;;;;;;;;;;-4.80;81.92;102590.47;5020849;28;19928;-88
2023/02/10 03:00:08;;;;;;;;;;;;;;;-4.81;82.00;102591.34;5027228;28;20016;-87
2023/02/10 03:02:35;;;;;;;;;;;;;;;-4.83;83.10;102595.63;5034088;28;20454;-88
2023/02/10 03:05:01;;;;;;;;;;;;;;;-4.77;83.36;102602.50;5031005;28;19975;-88
2023/02/10 03:07:26;;;;;;;;;;;;;;;-4.74;81.12;102599.94;5021329;28;19925;-88
2023/02/10 03:09:52;;;;;;;;;;;;;;;-4.77;81.34;102605.94;5030156;28;19921;-88
2023/02/10 03:12:17;;;;;;;;;;;;;;;-4.80;82.22;102599.94;5022147;28;19971;-87
2023/02/10 03:14:42;;;;;;;;;;;;;;;-4.83;82.36;102594.78;5030363;28;19924;-89
2023/02/10 03:17:08;;;;;;;;;;;;;;;-4.84;81.58;102595.63;5028503;28;19921;-88
2023/02/10 03:19:33;;;;;;;;;;;;;;;-4.86;81.44;102592.19;5050698;28;20283;-86
2023/02/10 03:21:58;;;;;;;;;;;;;;;-4.87;81.10;102601.66;5040583;28;19928;-88
2023/02/10 03:24:24;;;;;;;;;;;;;;;-4.91;81.09;102603.38;5045681;28;19921;-87
2023/02/10 03:26:49;;;;;;;;;;;;;;;-4.93;80.89;102597.38;5024232;28;19928;-88
2023/02/10 03:29:14;;;;;;;;;;;;;;;-4.94;80.65;102585.31;5046599;28;19921;-87
2023/02/10 03:31:40;;;;;;;;;;;;;;;-4.94;80.87;102585.31;5052166;28;20329;-88
2023/02/10 03:34:06;;;;;;;;;;;;;;;-4.92;81.12;102585.31;5041279;28;19920;-89
2023/02/10 03:36:33;;;;;;;;;;;;;;;-4.92;81.03;102581.00;5030967;28;19928;-88
2023/02/10 03:38:58;;;;;;;;;;;;;;;-4.90;80.90;102578.44;5045556;28;19953;-86
2023/02/10 03:41:24;;;;;;;;;;;;;;;-4.86;81.01;102575.00;5032479;28;19995;-87
2023/02/10 03:43:49;;;;;;;;;;;;;;;-4.85;80.63;102581.03;5032872;28;19917;-87
2023/02/10 03:46:14;;;;;;;;;;;;;;;-4.84;80.26;102583.56;5053122;28;19948;-89
2023/02/10 03:48:39;;;;;;;;;;;;;;;-4.86;80.64;102582.75;5031280;28;20512;-88
2023/02/10 03:51:06;;;;;;;;;;;;;;;-4.89;80.82;102585.31;5052100;28;19917;-88
2023/02/10 03:53:31;;;;;;;;;;;;;;;-4.91;80.53;102581.88;5025366;28;19921;-86
2023/02/10 03:55:57;;;;;;;;;;;;;;;-4.91;80.30;102589.59;5052529;28;19962;-88
2023/02/10 03:58:22;;;;;;;;;;;;;;;-4.91;80.41;102587.91;5047998;28;19917;-88
2023/02/10 04:00:48;;;;;;;;;;;;;;;-4.94;80.48;102593.06;5037548;28;20060;-88
2023/02/10 04:03:13;;;;;;;;;;;;;;;-4.97;81.86;102597.38;5053161;28;19916;-87
2023/02/10 04:05:38;;;;;;;;;;;;;;;-5.02;82.25;102594.78;5059399;28;20107;-86
2023/02/10 04:08:04;;;;;;;;;;;;;;;-5.05;82.28;102588.75;5034218;28;19916;-88
2023/02/10 04:10:29;;;;;;;;;;;;;;;-5.09;83.91;102602.53;5042478;28;19917;-88
2023/02/10 04:12:55;;;;;;;;;;;;;;;-5.12;83.67;102600.81;5033722;28;20435;-88
2023/02/10 04:15:20;;;;;;;;;;;;;;;-5.12;83.60;102606.00;5049471;28;19920;-88
2023/02/10 04:17:45;;;;;;;;;;;;;;;-5.13;84.27;102607.69;5025314;28;19982;-88
2023/02/10 04:20:11;;;;;;;;;;;;;;;-5.15;84.22;102608.53;5024279;28;19927;-88
2023/02/10 04:22:36;;;;;;;;;;;;;;;-5.19;83.78;102612.00;5048988;28;20636;-88
2023/02/10 04:25:01;;;;;;;;;;;;;;;-5.20;82.53;102602.53;5051158;28;19928;-88
2023/02/10 04:27:27;;;;;;;;;;;;;;;-5.18;81.86;102606.81;5051544;28;20406;-88
2023/02/10 04:29:52;;;;;;;;;;;;;;;-5.20;81.62;102611.13;5051455;28;19962;-89
2023/02/10 04:32:17;;;;;;;;;;;;;;;-5.21;81.26;102608.56;5039694;28;20607;-86
2023/02/10 04:34:43;;;;;;;;;;;;;;;-5.18;81.28;102611.13;5042110;28;19921;-87
2023/02/10 04:37:08;;;;;;;;;;;;;;;-5.17;81.20;102616.31;5047324;28;20016;-89
2023/02/10 04:39:33;;;;;;;;;;;;;;;-5.18;81.38;102624.03;5039618;28;19921;-89
2023/02/10 04:41:58;;;;;;;;;;;;;;;-5.22;81.40;102618.03;5053401;28;19984;-87
2023/02/10 04:44:24;;;;;;;;;;;;;;;-5.25;81.34;102630.91;5044928;28;19919;-85
2023/02/10 04:46:49;;;;;;;;;;;;;;;-5.28;81.33;102628.31;5026518;28;19997;-88
2023/02/10 04:49:15;;;;;;;;;;;;;;;-5.31;81.37;102630.91;5047432;28;20374;-87
2023/02/10 04:51:40;;;;;;;;;;;;;;;-5.28;81.25;102635.19;5031940;28;19932;-88
2023/02/10 04:54:05;;;;;;;;;;;;;;;-5.30;81.16;102639.50;5022810;28;20012;-88
2023/02/10 04:56:31;;;;;;;;;;;;;;;-5.34;81.25;102636.91;5020384;28;19920;-88
2023/02/10 04:58:56;;;;;;;;;;;;;;;-5.34;81.17;102636.91;5036355;28;19970;-88
2023/02/10 05:01:21;;;;;;;;;;;;;;;-5.35;81.32;102639.50;5047661;28;19931;-87
2023/02/10 05:03:46;;;;;;;;;;;;;;;-5.34;81.48;102639.50;5046988;28;20559;-88
2023/02/10 05:06:13;;;;;;;;;;;;;;;-5.35;81.55;102647.22;5039351;28;19943;-88
2023/02/10 05:08:41;;;;;;;;;;;;;;;-5.36;81.38;102642.94;5032508;28;20337;-88
2023/02/10 05:11:07;;;;;;;;;;;;;;;-5.39;81.40;102651.50;5051384;28;19923;-88
2023/02/10 05:13:32;;;;;;;;;;;;;;;-5.40;81.65;102646.34;5051052;28;19944;-87
2023/02/10 05:15:57;;;;;;;;;;;;;;;-5.41;82.39;102652.34;5050386;28;19925;-88
2023/02/10 05:18:22;;;;;;;;;;;;;;;-5.40;82.41;102654.09;5042926;28;19917;-87
2023/02/10 05:20:47;;;;;;;;;;;;;;;-5.37;81.92;102656.66;5039093;28;19925;-89
2023/02/10 05:23:13;;;;;;;;;;;;;;;-5.33;81.91;102655.81;5029839;28;19967;-88
2023/02/10 05:25:38;;;;;;;;;;;;;;;-5.29;84.66;102661.84;5039163;28;19921;-88
2023/02/10 05:28:03;;;;;;;;;;;;;;;-5.21;84.87;102673.88;5031758;28;20051;-86
2023/02/10 05:30:28;;;;;;;;;;;;;;;-5.05;85.98;102677.34;5053366;28;19943;-88
2023/02/10 05:32:54;;;;;;;;;;;;;;;-4.89;85.61;102685.94;5023803;28;20346;-87
2023/02/10 05:35:19;;;;;;;;;;;;;;;-4.79;85.83;102679.06;5047619;28;19932;-88
2023/02/10 05:37:44;;;;;;;;;;;;;;;-4.68;84.24;102679.06;5044181;28;19917;-88
2023/02/10 05:40:10;;;;;;;;;;;;;;;-4.66;83.65;102675.63;5029610;28;20313;-88
2023/02/10 05:42:35;;;;;;;;;;;;;;;-4.63;83.56;102675.59;5032937;28;20011;-87
2023/02/10 05:45:00;;;;;;;;;;;;;;;-4.61;83.72;102683.34;5033304;28;19928;-88
2023/02/10 05:47:26;;;;;;;;;;;;;;;-4.58;83.58;102667.84;5050909;28;20437;-88
2023/02/10 05:49:51;;;;;;;;;;;;;;;-4.56;83.28;102663.56;5033584;28;19921;-88
2023/02/10 05:52:16;;;;;;;;;;;;;;;-4.54;84.27;102669.59;5041114;28;20399;-87
2023/02/10 05:54:41;;;;;;;;;;;;;;;-4.52;84.54;102667.88;5029996;28;19934;-88
2023/02/10 05:57:07;;;;;;;;;;;;;;;-4.48;84.87;102682.50;5049606;28;19921;-87
2023/02/10 05:59:32;;;;;;;;;;;;;;;-4.44;84.39;102680.75;5032670;28;19973;-88
2023/02/10 06:01:57;;;;;;;;;;;;;;;-4.38;83.86;102681.59;5034357;28;19920;-89
2023/02/10 06:04:23;;;;;;;;;;;;;;;-4.31;83.27;102691.06;5028293;28;20400;-88
2023/02/10 06:06:49;;;;;;;;;;;;;;;-4.25;83.47;102689.31;5043338;28;20389;-88
2023/02/10 06:09:14;;;;;;;;;;;;;;;-4.19;83.65;102700.50;5022893;28;20499;-88
2023/02/10 06:11:39;;;;;;;;;;;;;;;-4.12;83.78;102706.53;5047881;28;19925;-88
2023/02/10 06:14:05;;;;;;;;;;;;;;;-4.05;82.92;102697.91;5051550;28;20286;-88
2023/02/10 06:16:30;;;;;;;;;;;;;;;-3.98;82.40;102706.47;5025696;28;19921;-88
2023/02/10 06:18:56;;;;;;;;;;;;;;;-3.95;82.28;102709.06;5025976;28;19931;-88
2023/02/10 06:21:22;;;;;;;;;;;;;;;-3.91;82.16;102709.03;5045467;28;19921;-88
2023/02/10 06:23:48;;;;;;;;;;;;;;;-3.87;82.24;102709.88;5049542;28;20334;-87
2023/02/10 06:26:13;;;;;;;;;;;;;;;-3.82;82.22;102715.03;5031354;28;20006;-88
2023/02/10 06:28:38;;;;;;;;;;;;;;;-3.78;81.98;102706.41;5052831;28;19917;-88
2023/02/10 06:31:04;;;;;;;;;;;;;;;-3.72;81.99;102698.59;5029288;28;19928;-87
2023/02/10 06:33:29;;;;;;;;;;;;;;;-3.70;82.06;102702.91;5030175;28;19917;-88
2023/02/10 06:35:54;;;;;;;;;;;;;;;-3.65;81.84;102703.78;5022436;28;19953;-87
2023/02/10 06:38:19;;;;;;;;;;;;;;;-3.61;81.70;102703.75;5054218;28;19984;-87
2023/02/10 06:40:45;;;;;;;;;;;;;;;-3.60;81.89;102706.31;5033831;28;19964;-88
2023/02/10 06:43:10;;;;;;;;;;;;;;;-3.56;81.77;102707.16;5031432;28;19968;-87
2023/02/10 06:45:35;;;;;;;;;;;;;;;-3.53;81.54;102704.56;5025836;28;19928;-87
2023/02/10 06:48:01;;;;;;;;;;;;;;;-3.50;81.81;102699.38;5034230;28;19956;-87
2023/02/10 06:50:26;;;;;;;;;;;;;;;-3.43;81.88;102701.06;5015129;28;19917;-88
2023/02/10 06:52:52;;;;;;;;;;;;;;;-3.35;82.23;102706.19;5015887;28;19924;-89
2023/02/10 06:55:17;;;;;;;;;;;;;;;-3.25;81.78;102700.94;5025275;28;19924;-87
2023/02/10 06:57:43;;;;;;;;;;;;;;;-3.13;82.13;102705.19;5036422;28;19927;-88
2023/02/10 07:00:10;;;;;;;;;;;;;;;-3.05;82.29;102706.00;5055562;28;20007;-87
2023/02/10 07:02:35;;;;;;;;;;;;;;;-2.97;82.21;102713.72;5057115;28;19931;-88
2023/02/10 07:05:02;;;;;;;;;;;;;;;-2.89;81.88;102714.50;5047417;28;20230;-89
2023/02/10 07:07:28;;;;;;;;;;;;;;;-2.82;81.66;102712.72;5040821;28;19928;-87
2023/02/10 07:09:53;;;;;;;;;;;;;;;-2.75;81.47;102713.53;5025939;28;20286;-88
2023/02/10 07:12:19;;;;;;;;;;;;;;;-2.71;81.36;102716.09;5030856;28;19932;-88
2023/02/10 07:14:45;;;;;;;;;;;;;;;-2.65;81.03;102721.22;5025480;28;19933;-88
2023/02/10 07:17:10;;;;;;;;;;;;;;;-2.58;80.90;102725.47;5022719;28;19931;-87
2023/02/10 07:19:35;;;;;;;;;;;;;;;-2.49;80.98;102728.88;5019024;28;19917;-88
2023/02/10 07:22:04;;;;;;;;;;;;;;;-2.41;80.98;102735.69;5038850;28;20280;-87
2023/02/10 07:24:30;;;;;;;;;;;;;;;-2.32;80.86;102726.09;5023057;28;19920;-87
2023/02/10 07:26:55;;;;;;;;;;;;;;;-2.24;80.74;102729.47;5016084;28;19921;-87
2023/02/10 07:29:20;;;;;;;;;;;;;;;-2.19;80.49;102730.31;5018640;28;19924;-88
2023/02/10 07:31:46;;;;;;;;;;;;;;;-2.15;80.43;102731.97;5035127;28;19921;-88
2023/02/10 07:34:11;;;;;;;;;;;;;;;-2.14;80.29;102729.38;5034018;28;19917;-88
2023/02/10 07:36:36;;;;;;;;;;;;;;;-2.10;80.11;102730.19;5035082;28;19917;-88
2023/02/10 07:39:07;;;;;;;;;;;;;;;-2.06;80.21;102726.69;5038280;28;19983;-88
2023/02/10 07:41:32;;;;;;;;;;;;;;;-2.04;80.50;102714.59;5028438;28;19961;-88
2023/02/10 07:43:58;;;;;;;;;;;;;;;-2.00;79.99;102724.06;5033090;28;19943;-89
2023/02/10 07:46:23;;;;;;;;;;;;;;;-2.00;80.41;102713.69;5037275;28;19974;-88
2023/02/10 07:48:48;;;;;;;;;;;;;;;-1.94;80.16;102717.94;5031865;28;20375;-88
2023/02/10 07:51:14;;;;;;;;;;;;;;;-1.86;80.22;102715.25;5033620;28;19963;-87
2023/02/10 07:53:39;;;;;;;;;;;;;;;-1.78;80.23;102718.63;5057049;28;19917;-88
2023/02/10 07:56:05;;;;;;;;;;;;;;;-1.70;80.29;102714.19;5039145;28;20191;-89
2023/02/10 07:58:30;;;;;;;;;;;;;;;-1.57;79.98;102722.69;5039601;28;19924;-88
2023/02/10 08:00:56;;;;;;;;;;;;;;;-1.45;79.97;102712.16;5038141;28;20342;-89
2023/02/10 08:03:24;;;;;;;;;;;;;;;-1.28;79.75;102724.88;5039222;28;19932;-88
2023/02/10 08:05:49;;;;;;;;;;;;;;;-1.09;79.57;102713.34;5035579;28;19987;-88
2023/02/10 08:08:15;;;;;;;;;;;;;;;-0.90;79.43;102719.13;5019970;28;19921;-89
2023/02/10 08:10:41;;;;;;;;;;;;;;;-0.65;79.21;102726.50;5017369;28;20379;-88
2023/02/10 08:13:06;;;;;;;;;;;;;;;-0.41;78.41;102734.78;5016490;28;19967;-89
2023/02/10 08:15:32;;;;;;;;;;;;;;;-0.20;78.16;102729.19;5034851;28;20180;-89
2023/02/10 08:18:00;;;;;;;;;;;;;;;0.07;77.77;102730.44;5054365;28;19924;-89
2023/02/10 08:20:26;;;;;;;;;;;;;;;0.29;77.45;102727.41;5035764;28;19971;-87
2023/02/10 08:22:55;;;;;;;;;;;;;;;0.50;76.69;102728.69;5035741;28;19963;-89
2023/02/10 08:25:20;;;;;;;;;;;;;;;0.68;77.11;102733.50;5036843;28;19927;-90
2023/02/10 08:27:46;;;;;;;;;;;;;;;0.78;76.69;102729.78;5044069;28;19917;-89
2023/02/10 08:30:11;;;;;;;;;;;;;;;0.85;75.94;102743.53;5036140;28;20386;-88
2023/02/10 08:32:37;;;;;;;;;;;;;;;0.85;74.88;102735.72;5034490;28;19917;-89
2023/02/10 08:35:02;;;;;;;;;;;;;;;0.91;75.40;102737.34;5035630;28;19970;-88
2023/02/10 08:37:28;;;;;;;;;;;;;;;0.98;75.12;102744.13;5027074;28;19917;-90
2023/02/10 08:39:53;;;;;;;;;;;;;;;1.13;75.42;102742.91;5049730;28;20315;-90
2023/02/10 08:42:18;;;;;;;;;;;;;;;1.19;74.88;102746.22;5016560;28;20299;-88
2023/02/10 08:44:44;;;;;;;;;;;;;;;1.29;74.43;102749.47;5016521;28;20448;-89
2023/02/10 08:47:11;;;;;;;;;;;;;;;1.19;73.35;102751.44;5016579;28;20365;-88
2023/02/10 08:49:36;;;;;;;;;;;;;;;1.15;73.20;102746.34;5028350;28;20347;-88
2023/02/10 08:52:01;;;;;;;;;;;;;;;1.22;73.44;102747.91;5035871;28;19960;-88
2023/02/10 08:54:26;;;;;;;;;;;;;;;1.18;73.04;102747.09;5045187;28;19959;-90
2023/02/10 08:56:55;;;;;;;;;;;;;;;1.17;73.21;102748.00;5061295;28;19984;-90
2023/02/10 08:59:21;;;;;;;;;;;;;;;1.22;73.44;102748.75;5046130;28;20015;-89
2023/02/10 09:01:48;;;;;;;;;;;;;;;1.27;73.22;102756.47;5039242;28;19951;-89
2023/02/10 09:04:14;;;;;;;;;;;;;;;1.19;72.24;102759.25;5040413;28;19973;-87
2023/02/10 09:06:42;;;;;;;;;;;;;;;1.25;72.34;102763.47;5037367;28;19924;-88
2023/02/10 09:09:11;;;;;;;;;;;;;;;1.23;72.17;102775.66;5020434;28;19936;-88
2023/02/10 09:11:37;;;;;;;;;;;;;;;1.28;72.58;102784.22;5023062;28;19989;-88
2023/02/10 09:14:02;;;;;;;;;;;;;;;1.39;72.28;102778.78;5017254;28;20465;-88
2023/02/10 09:16:36;;;;;;;;;;;;;;;1.58;72.39;102781.78;4999112;28;19980;-87
2023/02/10 09:19:02;;;;;;;;;;;;;;;1.82;72.28;102781.16;5021622;28;20199;-90
2023/02/10 09:21:28;;;;;;;;;;;;;;;2.08;71.97;102790.06;5026901;28;19925;-88
2023/02/10 09:23:53;;;;;;;;;;;;;;;2.19;71.50;102787.16;5020069;28;19991;-87
2023/02/10 09:26:19;;;;;;;;;;;;;;;2.20;71.16;102792.34;5033028;28;19944;-88
2023/02/10 09:28:48;;;;;;;;;;;;;;;2.12;71.58;102796.88;5025953;28;20432;-88
2023/02/10 09:31:15;;;;;;;;;;;;;;;2.05;71.75;102797.94;5032632;28;19922;-88
2023/02/10 09:33:44;;;;;;;;;;;;;;;2.11;71.97;102797.81;5010622;28;19917;-89
2023/02/10 09:36:27;;;;;;;;;;;;;;;2.36;72.19;102802.34;5012863;28;19921;-88
2023/02/10 09:38:54;;;;;;;;;;;;;;;2.56;70.53;102794.81;5022148;28;19956;-88
2023/02/10 09:41:26;;;;;;;;;;;;;;;2.57;70.24;102791.28;5021462;28;19975;-88
2023/02/10 09:44:10;;;;;;;;;;;;;;;2.69;69.90;102787.47;5017730;28;19939;-89
2023/02/10 09:46:36;;;;;;;;;;;;;;;2.86;70.14;102786.97;5010894;28;19920;-88
2023/02/10 09:49:24;;;;;;;;;;;;;;;2.82;69.25;102786.22;5018968;28;19924;-90
2023/02/10 09:51:56;;;;;;;;;;;;;;;2.72;68.35;102785.63;4988457;28;19960;-88
2023/02/10 09:54:28;;;;;;;;;;;;;;;2.72;69.08;102792.63;5029471;28;20452;-88
2023/02/10 09:56:59;;;;;;;;;;;;;;;2.74;69.30;102791.69;5047967;28;19921;-88
2023/02/10 09:59:25;;;;;;;;;;;;;;;2.74;68.22;102789.06;5031047;28;19948;-88
2023/02/10 10:01:58;;;;;;;;;;;;;;;2.86;68.72;102786.97;5028652;28;19956;-88
2023/02/10 10:04:24;;;;;;;;;;;;;;;2.98;68.40;102786.63;5019589;28;19920;-88
2023/02/10 10:07:02;;;;;;;;;;;;;;;3.02;67.92;102788.22;5030942;28;19936;-88
2023/02/10 10:09:45;;;;;;;;;;;;;;;2.94;67.00;102791.06;5032773;28;19924;-88
2023/02/10 10:12:20;;;;;;;;;;;;;;;3.13;67.98;102798.34;5039723;28;19928;-88
2023/02/10 10:14:46;;;;;;;;;;;;;;;3.36;68.07;102792.38;5052259;28;19927;-88
2023/02/10 10:17:37;;;;;;;;;;;;;;;3.59;67.92;102791.63;5020551;28;20370;-88
2023/02/10 10:20:20;;;;;;;;;;;;;;;3.85;67.22;102790.75;5029917;28;19917;-90
2023/02/10 10:23:06;;;;;;;;;;;;;;;4.00;67.24;102789.38;5016650;28;20383;-90
2023/02/10 10:25:36;;;;;;;;;;;;;;;4.17;67.51;102784.41;5016607;28;20404;-88
2023/02/10 10:28:07;;;;;;;;;;;;;;;4.23;66.25;102785.94;5015862;28;19917;-91
2023/02/10 10:30:42;;;;;;;;;;;;;;;4.31;65.80;102778.66;5001899;28;19978;-88
2023/02/10 10:33:27;;;;;;;;;;;;;;;4.35;64.18;102774.16;5009040;28;19928;-88
2023/02/10 10:36:00;;;;;;;;;;;;;;;4.43;64.26;102778.22;5010865;28;19917;-89
2023/02/10 10:38:30;;;;;;;;;;;;;;;4.47;62.91;102782.41;4997928;28;20415;-88
2023/02/10 10:41:02;;;;;;;;;;;;;;;4.42;61.46;102780.91;5035679;28;19920;-88
2023/02/10 10:43:44;;;;;;;;;;;;;;;4.44;62.05;102779.91;5050234;28;20003;-89
2023/02/10 10:46:40;;;;;;;;;;;;;;;4.35;60.24;102776.78;5010127;28;19968;-88
2023/02/10 10:49:21;;;;;;;;;;;;;;;4.38;60.10;102780.13;5000683;28;19950;-89
2023/02/10 10:51:57;;;;;;;;;;;;;;;4.53;62.24;102770.00;5001355;28;19943;-88
2023/02/10 10:54:29;;;;;;;;;;;;;;;4.67;62.36;102775.56;5013107;28;19916;-89
2023/02/10 10:57:15;;;;;;;;;;;;;;;;;;;;;
2023/02/10 11:00:02;;;;;;;;;;;;;;;4.69;60.81;102773.75;5016306;28;20306;-89
2023/02/10 11:02:27;;;;;;;;;;;;;;;4.70;59.57;102772.88;5001260;28;20037;-89
2023/02/10 11:05:13;;;;;;;;;;;;;;;4.73;60.03;102771.88;5010543;28;20446;-89
2023/02/10 11:07:47;;;;;;;;;;;;;;;4.74;59.57;102774.44;5021525;28;20056;-89
2023/02/10 11:10:26;;;;;;;;;;;;;;;4.88;60.50;102772.13;5009873;28;19924;-91
2023/02/10 11:13:43;;;;;;;;;;;;;;;5.01;60.55;102766.44;5008211;28;19917;-91
2023/02/10 11:19:13;;;;;;;;;;;;;;;5.17;60.29;102759.63;4992088;28;19921;-91
2023/02/10 11:21:50;;;;;;;;;;;;;;;5.28;60.42;102754.81;5009462;28;19925;-91
2023/02/10 11:24:41;;;;;;;;;;;;;;;5.36;58.76;102757.13;4994925;28;20437;-91
2023/02/10 11:30:54;;;;;;;;;;;;;;;5.54;60.46;102750.28;5042091;28;19924;-92
2023/02/10 11:33:28;;;;;;;;;;;;;;;5.46;56.57;102739.25;5028686;28;19971;-92
2023/02/10 11:36:06;;;;;;;;;;;;;;;5.37;56.92;102731.75;5032991;28;19909;-92
2023/02/10 11:38:33;;;;;;;;;;;;;;;5.14;56.03;102725.69;5035816;28;20011;-91
2023/02/10 11:41:29;;;;;;;;;;;;;;;5.00;56.54;102718.34;5038872;28;19916;-93
2023/02/10 11:44:16;;;;;;;;;;;;;;;4.85;56.91;102711.97;5018381;28;19921;-90
2023/02/10 11:47:01;;;;;;;;;;;;;;;4.76;57.42;102711.47;5020938;28;20217;-90
2023/02/10 11:49:45;;;;;;;;;;;;;;;4.84;58.61;102720.75;5020769;28;19922;-90
2023/02/10 11:52:27;;;;;;;;;;;;;;;;;;;;;
2023/02/10 11:55:01;;;;;;;;;;;;;;;5.26;60.83;102726.94;5016709;28;19924;-90
2023/02/10 12:00:41;;;;;;;;;;;;;;;5.92;63.21;102718.91;5040106;28;19924;-91
2023/02/10 12:03:09;;;;;;;;;;;;;;;6.16;59.49;102725.72;5023457;28;19995;-90
2023/02/10 12:05:58;;;;;;;;;;;;;;;6.04;57.69;102718.38;5012861;28;19987;-92
2023/02/10 12:08:41;;;;;;;;;;;;;;;6.00;58.02;102718.59;5056423;28;20046;-90
2023/02/10 12:11:29;;;;;;;;;;;;;;;5.99;57.97;102719.53;5071790;28;19960;-90
2023/02/10 12:14:06;;;;;;;;;;;;;;;6.04;58.80;102722.78;5049444;28;19924;-90
2023/02/10 12:16:48;;;;;;;;;;;;;;;5.88;56.13;102717.31;5001077;28;19921;-89
2023/02/10 12:19:35;;;;;;;;;;;;;;;5.97;57.67;102723.97;5026181;28;20008;-90
2023/02/10 12:22:09;;;;;;;;;;;;;;;5.97;57.57;102721.34;5034418;28;20385;-90
2023/02/10 12:25:01;;;;;;;;;;;;;;;5.99;57.63;102714.25;4988586;28;19987;-90
2023/02/10 12:27:29;;;;;;;;;;;;;;;6.04;57.36;102721.00;5004887;28;20451;-89
2023/02/10 12:30:09;;;;;;;;;;;;;;;6.04;57.43;102720.16;5006314;28;19921;-90
2023/02/10 12:32:51;;;;;;;;;;;;;;;6.18;56.31;102707.25;5027377;28;20371;-89
2023/02/10 12:35:29;;;;;;;;;;;;;;;6.32;56.64;102712.75;5059086;28;19920;-90
2023/02/10 12:41:10;;;;;;;;;;;;;;;6.36;56.60;102705.56;5056840;28;19982;-90
2023/02/10 12:43:54;;;;;;;;;;;;;;;6.26;56.30;102701.66;5046484;28;19925;-90
2023/02/10 12:46:38;;;;;;;;;;;;;;;6.13;56.20;102694.34;5030684;28;19917;-90
2023/02/10 12:49:20;;;;;;;;;;;;;;;6.00;55.93;102694.94;5049072;28;19936;-91
2023/02/10 12:52:01;;;;;;;;;;;;;;;5.87;55.57;102692.00;5043169;28;19916;-90
2023/02/10 12:54:48;;;;;;;;;;;;;;;5.82;56.05;102693.97;5038770;28;19927;-90
2023/02/10 12:57:19;;;;;;;;;;;;;;;5.80;55.23;102687.94;5043194;28;20012;-90
2023/02/10 12:59:47;;;;;;;;;;;;;;;5.73;54.65;102688.19;5048563;28;19921;-91
2023/02/10 13:02:25;;;;;;;;;;;;;;;5.69;55.69;102693.63;5046868;28;20194;-90
2023/02/10 13:04:56;;;;;;;;;;;;;;;5.70;55.40;102690.13;5043529;28;19921;-90